Time;durP1;ratioP1;P1;durP2;ratioP2;P2;SDS_P1;SDS_P2;PMS_P1;PMS_P2;Temp;Humidity;BMP_temperature;BMP_pressure;BME280_temperature;BME280_humidity;BME280_pressure;Samples;Min_cycle;Max_cycle;Signal;HPM_P1;HPM_P2
2023/06/01 00:00:47;;;;;;;6.63;3.95;;;;;;;;;;5053704;28;20036;-69
2023/06/01 00:03:13;;;;;;;9.98;4.45;;;;;;;;;;5054093;28;20029;-69
2023/06/01 00:05:40;;;;;;;7.18;4.38;;;;;;;;;;5053588;28;20020;-69
2023/06/01 00:08:06;;;;;;;9.95;4.45;;;;;;;;;;5053644;28;20405;-69
2023/06/01 00:10:33;;;;;;;12.63;4.55;;;;;;;;;;5053419;28;20051;-69
2023/06/01 00:12:59;;;;;;;6.00;4.25;;;;;;;;;;5053454;28;20017;-69
2023/06/01 00:15:27;;;;;;;6.97;4.65;;;;;;;;;;5053645;28;20020;-69
2023/06/01 00:17:53;;;;;;;4.85;4.30;;;;;;;;;;5053499;28;20025;-69
2023/06/01 00:20:19;;;;;;;12.65;4.35;;;;;;;;;;5053524;28;20074;-69
2023/06/01 00:22:46;;;;;;;7.93;4.80;;;;;;;;;;5053297;28;20029;-68
2023/06/01 00:25:12;;;;;;;7.95;4.13;;;;;;;;;;5053580;28;20032;-68
2023/06/01 00:27:38;;;;;;;6.45;4.13;;;;;;;;;;5053355;28;20043;-69
2023/06/01 00:30:05;;;;;;;5.75;4.05;;;;;;;;;;5053114;28;20021;-69
2023/06/01 00:32:31;;;;;;;6.82;4.15;;;;;;;;;;5053261;28;20679;-68
2023/06/01 00:34:58;;;;;;;5.38;4.22;;;;;;;;;;5053281;28;20500;-68
2023/06/01 00:37:24;;;;;;;5.85;4.45;;;;;;;;;;5053604;28;20029;-68
2023/06/01 00:39:50;;;;;;;4.95;4.18;;;;;;;;;;5053167;28;20033;-68
2023/06/01 00:42:17;;;;;;;7.05;4.28;;;;;;;;;;5053174;28;20025;-69
2023/06/01 00:44:43;;;;;;;6.20;4.65;;;;;;;;;;5052838;28;20021;-68
2023/06/01 00:47:10;;;;;;;12.23;4.22;;;;;;;;;;5053043;28;20123;-69
2023/06/01 00:49:36;;;;;;;9.40;4.40;;;;;;;;;;5053083;28;20020;-69
2023/06/01 00:52:02;;;;;;;8.52;4.43;;;;;;;;;;5053334;28;20025;-69
2023/06/01 00:54:29;;;;;;;5.95;4.30;;;;;;;;;;5052755;28;20017;-69
2023/06/01 00:56:55;;;;;;;10.13;4.97;;;;;;;;;;5052813;28;20033;-69
2023/06/01 00:59:22;;;;;;;10.75;4.88;;;;;;;;;;5052486;28;20021;-68
2023/06/01 01:01:48;;;;;;;8.95;5.00;;;;;;;;;;5052570;28;20029;-68
2023/06/01 01:04:17;;;;;;;9.73;4.50;;;;;;;;;;5052609;28;20058;-69
2023/06/01 01:06:56;;;;;;;11.75;4.78;;;;;;;;;;5052661;28;20031;-69
2023/06/01 01:09:28;;;;;;;5.80;4.82;;;;;;;;;;5052582;28;20029;-68
2023/06/01 01:11:59;;;;;;;8.88;4.32;;;;;;;;;;5052460;28;20028;-68
2023/06/01 01:14:30;;;;;;;7.13;4.72;;;;;;;;;;5052157;28;20413;-69
2023/06/01 01:17:03;;;;;;;8.95;4.85;;;;;;;;;;5052403;28;20405;-69
2023/06/01 01:19:48;;;;;;;6.10;4.53;;;;;;;;;;5052372;28;20401;-69
2023/06/01 01:22:17;;;;;;;6.63;4.25;;;;;;;;;;5052280;28;20428;-69
2023/06/01 01:24:56;;;;;;;12.35;4.50;;;;;;;;;;5052329;28;20055;-69
2023/06/01 01:27:24;;;;;;;6.43;5.00;;;;;;;;;;5051931;28;20040;-68
2023/06/01 01:29:52;;;;;;;11.48;5.10;;;;;;;;;;5052231;28;20497;-69
2023/06/01 01:32:20;;;;;;;8.27;4.70;;;;;;;;;;5052142;28;20035;-69
2023/06/01 01:34:47;;;;;;;10.90;4.30;;;;;;;;;;5052196;28;20017;-69
2023/06/01 01:37:14;;;;;;;7.72;4.22;;;;;;;;;;5052192;28;20028;-69
2023/06/01 01:39:40;;;;;;;10.85;4.80;;;;;;;;;;5050940;28;20507;-69
2023/06/01 01:42:07;;;;;;;9.98;4.40;;;;;;;;;;5051689;28;20037;-69
2023/06/01 01:44:33;;;;;;;7.78;4.82;;;;;;;;;;5052290;28;20031;-69
2023/06/01 01:47:09;;;;;;;8.38;4.43;;;;;;;;;;5051929;28;20485;-68
2023/06/01 01:49:42;;;;;;;9.02;4.55;;;;;;;;;;5052020;28;20017;-69
2023/06/01 01:52:14;;;;;;;5.47;4.55;;;;;;;;;;5051959;28;20516;-69
2023/06/01 01:54:43;;;;;;;11.07;4.43;;;;;;;;;;5052120;28;20396;-68
2023/06/01 01:57:09;;;;;;;7.93;4.90;;;;;;;;;;5051645;28;20013;-68
2023/06/01 01:59:36;;;;;;;11.88;5.05;;;;;;;;;;5052178;28;20055;-69
2023/06/01 02:02:02;;;;;;;8.70;5.07;;;;;;;;;;5055189;28;20021;-68
2023/06/01 02:04:30;;;;;;;7.30;4.97;;;;;;;;;;5056229;28;20033;-69
2023/06/01 02:06:56;;;;;;;8.65;5.25;;;;;;;;;;5056145;28;20031;-69
2023/06/01 02:09:22;;;;;;;12.15;5.45;;;;;;;;;;5056155;28;20521;-69
2023/06/01 02:11:49;;;;;;;10.10;5.20;;;;;;;;;;5056068;28;20033;-69
2023/06/01 02:14:15;;;;;;;11.13;5.07;;;;;;;;;;5055735;28;20031;-68
2023/06/01 02:16:44;;;;;;;14.15;5.70;;;;;;;;;;5056182;28;20029;-68
2023/06/01 02:19:10;;;;;;;10.32;5.40;;;;;;;;;;5055760;28;20432;-68
2023/06/01 02:21:37;;;;;;;7.60;5.20;;;;;;;;;;5055568;28;20031;-69
2023/06/01 02:24:08;;;;;;;10.48;5.35;;;;;;;;;;5055525;28;20048;-68
2023/06/01 02:26:35;;;;;;;15.50;5.85;;;;;;;;;;5055412;28;20024;-69
2023/06/01 02:29:05;;;;;;;10.20;5.07;;;;;;;;;;5055834;28;20033;-69
2023/06/01 02:31:35;;;;;;;10.50;5.57;;;;;;;;;;5054287;28;20100;-69
2023/06/01 02:34:01;;;;;;;12.27;5.35;;;;;;;;;;5055877;28;20024;-69
2023/06/01 02:36:34;;;;;;;11.13;6.10;;;;;;;;;;5055601;28;20168;-69
2023/06/01 02:39:01;;;;;;;9.48;5.60;;;;;;;;;;5055399;28;20031;-69
2023/06/01 02:41:27;;;;;;;8.57;5.25;;;;;;;;;;5055372;28;20025;-69
2023/06/01 02:43:53;;;;;;;6.82;5.30;;;;;;;;;;5055196;28;20486;-69
2023/06/01 02:46:20;;;;;;;8.25;5.95;;;;;;;;;;5055248;28;20023;-69
2023/06/01 02:48:47;;;;;;;14.00;6.88;;;;;;;;;;5055146;28;20029;-69
2023/06/01 02:51:13;;;;;;;10.38;5.50;;;;;;;;;;5055327;28;20035;-69
2023/06/01 02:53:40;;;;;;;10.25;5.32;;;;;;;;;;5055140;28;20074;-68
2023/06/01 02:56:06;;;;;;;11.20;5.72;;;;;;;;;;5055052;28;20043;-69
2023/06/01 02:58:33;;;;;;;9.25;6.03;;;;;;;;;;5055037;28;20017;-69
2023/06/01 03:00:59;;;;;;;11.10;5.82;;;;;;;;;;5055270;28;20032;-69
2023/06/01 03:03:26;;;;;;;9.02;5.88;;;;;;;;;;5054790;28;20025;-69
2023/06/01 03:05:53;;;;;;;10.82;5.78;;;;;;;;;;5054993;28;20118;-69
2023/06/01 03:08:19;;;;;;;13.50;5.47;;;;;;;;;;5054657;28;20033;-69
2023/06/01 03:10:46;;;;;;;11.85;6.00;;;;;;;;;;5054586;28;20031;-69
2023/06/01 03:13:12;;;;;;;13.95;5.90;;;;;;;;;;5053366;28;20051;-69
2023/06/01 03:15:39;;;;;;;9.93;6.07;;;;;;;;;;5054544;28;20021;-69
2023/06/01 03:18:05;;;;;;;7.18;6.40;;;;;;;;;;5054891;28;20027;-69
2023/06/01 03:20:32;;;;;;;12.93;6.78;;;;;;;;;;5054635;28;20448;-69
2023/06/01 03:22:58;;;;;;;10.43;6.50;;;;;;;;;;5054369;28;20071;-69
2023/06/01 03:25:24;;;;;;;11.27;6.80;;;;;;;;;;5054519;28;20078;-69
2023/06/01 03:27:51;;;;;;;12.55;6.20;;;;;;;;;;5054328;28;20481;-69
2023/06/01 03:30:17;;;;;;;9.70;7.05;;;;;;;;;;5053507;28;20040;-69
2023/06/01 03:32:45;;;;;;;7.72;6.40;;;;;;;;;;5054473;28;20029;-69
2023/06/01 03:35:12;;;;;;;8.60;6.00;;;;;;;;;;5054474;28;20021;-69
2023/06/01 03:37:40;;;;;;;7.13;5.82;;;;;;;;;;5054271;28;20029;-69
2023/06/01 03:40:10;;;;;;;11.18;6.70;;;;;;;;;;5054257;28;20029;-69
2023/06/01 03:42:41;;;;;;;12.68;6.18;;;;;;;;;;5054511;28;20025;-69
2023/06/01 03:45:07;;;;;;;;;;;;;;;;;;5054540;28;20459;-69
2023/06/01 03:47:34;;;;;;;19.45;6.35;;;;;;;;;;5054047;28;19904;-69
2023/06/01 03:50:01;;;;;;;13.82;6.70;;;;;;;;;;5054364;28;20055;-69
2023/06/01 03:52:28;;;;;;;8.88;6.22;;;;;;;;;;5053880;28;20070;-68
2023/06/01 03:54:58;;;;;;;10.45;6.65;;;;;;;;;;5054292;28;20025;-69
2023/06/01 03:57:25;;;;;;;11.73;6.32;;;;;;;;;;5053978;28;20021;-69
2023/06/01 03:59:51;;;;;;;10.18;6.03;;;;;;;;;;5054082;28;20086;-69
2023/06/01 04:02:21;;;;;;;9.98;6.88;;;;;;;;;;5053792;28;20033;-68
2023/06/01 04:04:48;;;;;;;7.63;6.43;;;;;;;;;;5053798;28;20036;-69
2023/06/01 04:07:18;;;;;;;10.05;6.60;;;;;;;;;;5053595;28;20250;-69
2023/06/01 04:09:46;;;;;;;8.50;6.40;;;;;;;;;;5053717;28;20074;-69
2023/06/01 04:12:13;;;;;;;13.52;6.80;;;;;;;;;;5053456;28;20273;-69
2023/06/01 04:14:39;;;;;;;9.77;6.85;;;;;;;;;;5053672;28;20404;-69
2023/06/01 04:17:06;;;;;;;12.52;6.65;;;;;;;;;;5053565;28;20033;-69
2023/06/01 04:19:33;;;;;;;11.23;6.55;;;;;;;;;;5053428;28;20546;-69
2023/06/01 04:22:00;;;;;;;8.05;5.95;;;;;;;;;;5053510;28;20017;-69
2023/06/01 04:24:26;;;;;;;9.95;5.88;;;;;;;;;;5052755;28;20424;-69
2023/06/01 04:26:53;;;;;;;11.35;6.80;;;;;;;;;;5053559;28;20029;-69
2023/06/01 04:29:21;;;;;;;9.25;6.82;;;;;;;;;;5053656;28;20025;-69
2023/06/01 04:31:47;;;;;;;8.77;6.75;;;;;;;;;;5053175;28;20405;-69
2023/06/01 04:34:13;;;;;;;7.78;6.15;;;;;;;;;;5053175;28;20031;-69
2023/06/01 04:36:40;;;;;;;8.07;5.80;;;;;;;;;;5051781;28;20072;-69
2023/06/01 04:39:07;;;;;;;9.73;5.55;;;;;;;;;;5053301;28;20037;-69
2023/06/01 04:41:35;;;;;;;8.15;5.78;;;;;;;;;;5053089;28;20024;-69
2023/06/01 04:44:05;;;;;;;9.20;5.88;;;;;;;;;;5053001;28;20504;-68
2023/06/01 04:46:31;;;;;;;6.03;4.82;;;;;;;;;;5053284;28;20013;-69
2023/06/01 04:48:58;;;;;;;11.32;5.85;;;;;;;;;;5053018;28;20035;-69
2023/06/01 04:51:24;;;;;;;11.40;6.15;;;;;;;;;;5052742;28;20024;-71
2023/06/01 04:53:52;;;;;;;9.55;5.72;;;;;;;;;;5051930;28;20028;-71
2023/06/01 04:56:19;;;;;;;6.85;5.57;;;;;;;;;;5052708;28;20021;-71
2023/06/01 04:58:49;;;;;;;7.82;5.45;;;;;;;;;;5052611;28;20037;-71
2023/06/01 05:01:15;;;;;;;9.07;5.63;;;;;;;;;;5052692;28;20358;-71
2023/06/01 05:03:45;;;;;;;12.38;5.45;;;;;;;;;;5052867;28;20035;-71
2023/06/01 05:06:12;;;;;;;13.27;5.15;;;;;;;;;;5052478;28;20021;-71
2023/06/01 05:08:39;;;;;;;10.20;5.50;;;;;;;;;;5052560;28;20054;-71
2023/06/01 05:11:06;;;;;;;9.73;5.88;;;;;;;;;;5052476;28;20031;-71
2023/06/01 05:13:34;;;;;;;8.05;5.05;;;;;;;;;;5052830;28;20021;-68
2023/06/01 05:16:00;;;;;;;13.25;5.50;;;;;;;;;;5052543;28;20029;-68
2023/06/01 05:18:27;;;;;;;8.43;5.60;;;;;;;;;;5052486;28;20036;-68
2023/06/01 05:20:53;;;;;;;13.27;5.60;;;;;;;;;;5052237;28;20024;-69
2023/06/01 05:23:19;;;;;;;7.80;5.45;;;;;;;;;;5052310;28;20048;-71
2023/06/01 05:25:46;;;;;;;7.22;5.40;;;;;;;;;;5052451;28;20021;-71
2023/06/01 05:28:12;;;;;;;10.45;5.93;;;;;;;;;;5052393;28;20033;-69
2023/06/01 05:30:38;;;;;;;7.53;5.90;;;;;;;;;;5052500;28;20047;-69
2023/06/01 05:33:05;;;;;;;14.02;6.13;;;;;;;;;;5052078;28;20535;-69
2023/06/01 05:35:31;;;;;;;9.40;5.63;;;;;;;;;;5050343;28;20029;-68
2023/06/01 05:37:57;;;;;;;9.18;6.00;;;;;;;;;;5052096;28;20039;-68
2023/06/01 05:40:23;;;;;;;13.23;5.93;;;;;;;;;;5052518;28;20066;-68
2023/06/01 05:42:50;;;;;;;12.40;5.80;;;;;;;;;;5051927;28;20493;-69
2023/06/01 05:45:16;;;;;;;7.50;5.43;;;;;;;;;;5050730;28;20020;-69
2023/06/01 05:47:43;;;;;;;9.38;6.05;;;;;;;;;;5051961;28;20027;-69
2023/06/01 05:50:09;;;;;;;10.00;6.22;;;;;;;;;;5051873;28;20493;-68
2023/06/01 05:52:36;;;;;;;6.95;5.75;;;;;;;;;;5052208;28;20028;-68
2023/06/01 05:55:02;;;;;;;8.13;5.85;;;;;;;;;;5052002;28;20032;-68
2023/06/01 05:57:29;;;;;;;8.43;5.97;;;;;;;;;;5051644;28;20497;-68
2023/06/01 05:59:55;;;;;;;11.82;6.00;;;;;;;;;;5052121;28;20397;-69
2023/06/01 06:02:21;;;;;;;8.10;5.63;;;;;;;;;;5051837;28;20526;-68
2023/06/01 06:04:48;;;;;;;9.57;5.60;;;;;;;;;;5048447;28;20013;-69
2023/06/01 06:07:14;;;;;;;8.05;5.43;;;;;;;;;;5051315;28;20507;-68
2023/06/01 06:09:41;;;;;;;8.23;5.47;;;;;;;;;;5051246;28;20041;-68
2023/06/01 06:12:07;;;;;;;10.77;5.90;;;;;;;;;;5051340;28;20032;-68
2023/06/01 06:14:34;;;;;;;6.45;5.13;;;;;;;;;;5051851;28;20021;-69
2023/06/01 06:17:00;;;;;;;8.77;5.72;;;;;;;;;;5051176;28;20049;-68
2023/06/01 06:19:26;;;;;;;8.77;5.30;;;;;;;;;;5051441;28;20029;-69
2023/06/01 06:21:53;;;;;;;6.95;5.40;;;;;;;;;;5051501;28;20013;-69
2023/06/01 06:24:19;;;;;;;8.27;5.53;;;;;;;;;;5050506;28;20056;-68
2023/06/01 06:26:47;;;;;;;10.00;5.32;;;;;;;;;;5050194;28;20070;-67
2023/06/01 06:29:13;;;;;;;7.90;5.28;;;;;;;;;;5043759;28;20436;-67
2023/06/01 06:31:39;;;;;;;6.90;5.45;;;;;;;;;;5049552;28;20021;-68
2023/06/01 06:34:06;;;;;;;10.13;5.32;;;;;;;;;;5036536;28;20489;-67
2023/06/01 06:36:32;;;;;;;7.85;5.40;;;;;;;;;;5045210;28;20052;-67
2023/06/01 06:38:59;;;;;;;7.25;5.40;;;;;;;;;;5050306;28;20026;-67
2023/06/01 06:41:25;;;;;;;15.40;5.88;;;;;;;;;;5051113;28;20514;-68
2023/06/01 06:43:52;;;;;;;8.57;5.07;;;;;;;;;;5050736;28;20084;-68
2023/06/01 06:46:18;;;;;;;16.33;5.55;;;;;;;;;;5048899;28;20021;-68
2023/06/01 06:48:44;;;;;;;8.43;5.63;;;;;;;;;;5054888;28;20029;-68
2023/06/01 06:51:11;;;;;;;8.98;5.22;;;;;;;;;;5054586;28;20039;-69
2023/06/01 06:53:37;;;;;;;9.95;5.10;;;;;;;;;;5049258;28;20032;-68
2023/06/01 06:56:04;;;;;;;12.52;5.22;;;;;;;;;;5052536;28;20013;-68
2023/06/01 06:58:30;;;;;;;6.57;5.35;;;;;;;;;;5054241;28;20035;-70
2023/06/01 07:00:56;;;;;;;6.20;5.18;;;;;;;;;;5054038;28;20021;-68
2023/06/01 07:03:22;;;;;;;7.82;4.60;;;;;;;;;;5053222;28;20043;-68
2023/06/01 07:05:49;;;;;;;6.40;4.63;;;;;;;;;;5054047;28;20025;-68
2023/06/01 07:08:16;;;;;;;6.88;5.07;;;;;;;;;;5053773;28;20404;-68
2023/06/01 07:10:42;;;;;;;8.05;4.38;;;;;;;;;;5053672;28;20017;-67
2023/06/01 07:13:08;;;;;;;4.78;4.28;;;;;;;;;;5054478;28;20031;-67
2023/06/01 07:15:35;;;;;;;6.05;4.45;;;;;;;;;;5054305;28;20036;-67
2023/06/01 07:18:01;;;;;;;5.55;4.28;;;;;;;;;;5054328;28;20039;-69
2023/06/01 07:20:27;;;;;;;8.43;4.68;;;;;;;;;;5043895;28;20409;-69
2023/06/01 07:22:54;;;;;;;5.10;4.60;;;;;;;;;;5048386;28;20044;-68
2023/06/01 07:25:20;;;;;;;5.60;4.20;;;;;;;;;;5044191;28;20035;-68
2023/06/01 07:27:48;;;;;;;7.00;4.20;;;;;;;;;;5053195;28;20029;-68
2023/06/01 07:30:14;;;;;;;4.80;4.20;;;;;;;;;;5051614;28;20121;-68
2023/06/01 07:32:41;;;;;;;5.50;4.20;;;;;;;;;;5051722;28;20031;-69
2023/06/01 07:35:07;;;;;;;6.50;4.45;;;;;;;;;;5052442;28;20021;-67
2023/06/01 07:37:34;;;;;;;9.00;4.55;;;;;;;;;;5052691;28;20029;-68
2023/06/01 07:40:00;;;;;;;6.28;4.25;;;;;;;;;;5051313;28;20034;-69
2023/06/01 07:42:27;;;;;;;5.10;4.25;;;;;;;;;;5052548;28;20029;-69
2023/06/01 07:44:53;;;;;;;5.95;4.47;;;;;;;;;;5039395;28;20022;-69
2023/06/01 07:47:21;;;;;;;7.05;4.53;;;;;;;;;;5046020;28;20029;-68
2023/06/01 07:49:47;;;;;;;5.10;4.55;;;;;;;;;;5053070;28;20036;-69
2023/06/01 07:52:13;;;;;;;4.53;4.10;;;;;;;;;;5052623;28;20021;-69
2023/06/01 07:54:40;;;;;;;6.10;4.30;;;;;;;;;;5052902;28;20082;-68
2023/06/01 07:57:07;;;;;;;7.10;4.47;;;;;;;;;;5047528;28;20051;-69
2023/06/01 07:59:34;;;;;;;5.55;3.92;;;;;;;;;;5051869;28;20057;-69
2023/06/01 08:02:01;;;;;;;6.65;4.10;;;;;;;;;;5044111;28;20075;-69
2023/06/01 08:04:33;;;;;;;5.80;4.30;;;;;;;;;;5036759;28;20029;-68
2023/06/01 08:07:01;;;;;;;5.43;4.60;;;;;;;;;;5042122;28;20025;-70
2023/06/01 08:09:30;;;;;;;4.50;4.10;;;;;;;;;;5046631;28;20059;-69
2023/06/01 08:11:56;;;;;;;4.97;3.97;;;;;;;;;;5051815;28;20507;-70
2023/06/01 08:14:23;;;;;;;5.90;4.35;;;;;;;;;;5051235;28;20029;-69
2023/06/01 08:16:51;;;;;;;5.35;4.47;;;;;;;;;;5052053;28;20025;-69
2023/06/01 08:19:17;;;;;;;5.65;3.90;;;;;;;;;;5052103;28;20513;-70
2023/06/01 08:21:45;;;;;;;4.68;4.10;;;;;;;;;;5051766;28;20477;-69
2023/06/01 08:24:13;;;;;;;7.10;4.13;;;;;;;;;;5051950;28;20071;-70
2023/06/01 08:26:39;;;;;;;5.90;4.13;;;;;;;;;;5051198;28;20504;-69
2023/06/01 08:29:05;;;;;;;6.03;4.15;;;;;;;;;;5051442;28;20463;-69
2023/06/01 08:31:32;;;;;;;5.03;3.70;;;;;;;;;;5051671;28;20032;-68
2023/06/01 08:33:58;;;;;;;4.60;3.80;;;;;;;;;;5051810;28;20473;-70
2023/06/01 08:36:25;;;;;;;7.72;4.40;;;;;;;;;;5050561;28;20025;-69
2023/06/01 08:38:51;;;;;;;4.70;4.03;;;;;;;;;;5044690;28;20044;-69
2023/06/01 08:41:21;;;;;;;5.82;4.00;;;;;;;;;;5031993;28;20025;-70
2023/06/01 08:43:54;;;;;;;5.18;3.97;;;;;;;;;;5031304;28;20448;-70
2023/06/01 08:46:22;;;;;;;5.72;3.80;;;;;;;;;;5041072;28;20019;-69
2023/06/01 08:48:51;;;;;;;4.80;3.72;;;;;;;;;;5051702;28;20025;-70
2023/06/01 08:51:17;;;;;;;4.95;3.80;;;;;;;;;;5051706;28;20119;-70
2023/06/01 08:53:45;;;;;;;8.13;4.30;;;;;;;;;;5050649;28;20039;-70
2023/06/01 08:56:12;;;;;;;4.65;3.63;;;;;;;;;;5049385;28;20511;-70
2023/06/01 08:58:41;;;;;;;6.57;3.90;;;;;;;;;;5051598;28;20035;-69
2023/06/01 09:01:07;;;;;;;4.25;3.80;;;;;;;;;;5044133;28;20017;-70
2023/06/01 09:03:33;;;;;;;4.00;3.60;;;;;;;;;;5051598;28;20044;-70
2023/06/01 09:06:00;;;;;;;3.97;3.58;;;;;;;;;;5047539;28;20029;-70
2023/06/01 09:08:26;;;;;;;6.60;3.75;;;;;;;;;;5048816;28;20033;-70
2023/06/01 09:10:53;;;;;;;6.07;3.90;;;;;;;;;;5033423;28;20401;-70
2023/06/01 09:13:32;;;;;;;5.32;3.72;;;;;;;;;;5048697;28;20048;-70
2023/06/01 09:15:58;;;;;;;6.38;3.70;;;;;;;;;;5044295;28;20031;-70
2023/06/01 09:18:25;;;;;;;4.57;3.65;;;;;;;;;;5045477;28;20025;-70
2023/06/01 09:20:53;;;;;;;6.13;4.00;;;;;;;;;;5039077;28;20029;-70
2023/06/01 09:23:26;;;;;;;5.18;3.80;;;;;;;;;;5035685;28;20053;-70
2023/06/01 09:26:09;;;;;;;5.32;3.65;;;;;;;;;;5039290;28;20028;-70
2023/06/01 09:28:54;;;;;;;5.28;3.83;;;;;;;;;;5035435;28;20033;-70
2023/06/01 09:31:41;;;;;;;6.25;4.28;;;;;;;;;;5032364;28;20029;-71
2023/06/01 09:34:20;;;;;;;4.80;3.63;;;;;;;;;;5046001;28;20033;-71
2023/06/01 09:36:47;;;;;;;3.50;3.20;;;;;;;;;;5035519;28;20489;-71
2023/06/01 09:39:14;;;;;;;3.78;3.33;;;;;;;;;;5049274;28;20028;-70
2023/06/01 09:41:48;;;;;;;3.88;3.55;;;;;;;;;;5050330;28;20025;-70
2023/06/01 09:44:15;;;;;;;4.20;3.80;;;;;;;;;;5051439;28;20497;-70
2023/06/01 09:46:51;;;;;;;5.78;3.63;;;;;;;;;;5050527;28;20021;-70
2023/06/01 09:49:24;;;;;;;4.50;3.97;;;;;;;;;;5050635;28;20386;-70
2023/06/01 09:51:50;;;;;;;5.35;3.78;;;;;;;;;;5049761;28;20058;-70
2023/06/01 09:54:27;;;;;;;6.00;4.20;;;;;;;;;;5049517;28;20035;-70
2023/06/01 09:56:54;;;;;;;6.32;4.00;;;;;;;;;;5050723;28;20021;-70
2023/06/01 09:59:24;;;;;;;4.38;3.97;;;;;;;;;;5049599;28;20104;-70
2023/06/01 10:01:51;;;;;;;;;;;;;;;;;;5051306;28;20048;-70
2023/06/01 10:04:26;;;;;;;4.50;4.10;;;;;;;;;;5048772;28;19915;-69
2023/06/01 10:06:54;;;;;;;7.43;4.22;;;;;;;;;;5049746;28;20028;-70
2023/06/01 10:09:21;;;;;;;7.70;4.15;;;;;;;;;;5050470;28;20035;-70
2023/06/01 10:11:48;;;;;;;6.10;3.88;;;;;;;;;;5050458;28;20229;-70
2023/06/01 10:14:14;;;;;;;5.75;4.03;;;;;;;;;;5039601;28;20017;-70
2023/06/01 10:16:41;;;;;;;4.95;4.22;;;;;;;;;;5050733;28;20400;-70
2023/06/01 10:19:08;;;;;;;6.03;3.88;;;;;;;;;;5049886;28;20495;-70
2023/06/01 10:21:36;;;;;;;6.57;3.92;;;;;;;;;;5051148;28;20028;-70
2023/06/01 10:24:03;;;;;;;3.88;3.38;;;;;;;;;;5053638;28;20041;-70
2023/06/01 10:26:31;;;;;;;6.63;3.78;;;;;;;;;;5054671;28;20033;-70
2023/06/01 10:28:58;;;;;;;4.65;4.15;;;;;;;;;;5054396;28;20041;-71
2023/06/01 10:31:37;;;;;;;5.05;3.40;;;;;;;;;;5054248;28;20039;-70
2023/06/01 10:34:04;;;;;;;5.43;3.88;;;;;;;;;;5054467;28;20021;-70
2023/06/01 10:37:06;;;;;;;4.57;3.80;;;;;;;;;;5054698;28;20035;-70
2023/06/01 10:39:33;;;;;;;6.00;4.10;;;;;;;;;;5012210;28;20475;-70
2023/06/01 10:42:18;;;;;;;4.43;3.63;;;;;;;;;;5008404;28;20054;-69
2023/06/01 10:44:44;;;;;;;6.20;4.55;;;;;;;;;;4992372;28;20041;-70
2023/06/01 10:47:11;;;;;;;4.10;3.70;;;;;;;;;;4992480;28;20046;-70
2023/06/01 10:49:49;;;;;;;4.22;3.83;;;;;;;;;;4991528;28;20057;-70
2023/06/01 10:52:26;;;;;;;4.07;3.45;;;;;;;;;;4992366;28;20400;-70
2023/06/01 10:54:53;;;;;;;4.43;3.63;;;;;;;;;;4991856;28;20423;-70
2023/06/01 10:57:20;;;;;;;5.18;3.88;;;;;;;;;;4997584;28;20036;-70
2023/06/01 11:00:16;;;;;;;4.70;3.75;;;;;;;;;;5011846;28;20044;-70
2023/06/01 11:02:53;;;;;;;6.85;3.58;;;;;;;;;;5002025;28;20487;-70
2023/06/01 11:05:51;;;;;;;4.07;3.65;;;;;;;;;;5010943;28;20087;-70
2023/06/01 11:08:17;;;;;;;4.10;3.40;;;;;;;;;;4971853;28;20054;-70
2023/06/01 11:10:53;;;;;;;5.65;3.47;;;;;;;;;;4972600;28;20027;-71
2023/06/01 11:13:33;;;;;;;4.30;3.58;;;;;;;;;;4990612;28;20526;-70
2023/06/01 11:16:18;;;;;;;5.03;3.70;;;;;;;;;;5031833;28;20025;-70
2023/06/01 11:18:49;;;;;;;4.45;3.70;;;;;;;;;;5031433;28;20037;-70
2023/06/01 11:21:17;;;;;;;6.95;3.85;;;;;;;;;;5030395;28;20069;-70
2023/06/01 11:23:45;;;;;;;4.47;3.50;;;;;;;;;;5024541;28;20042;-70
2023/06/01 11:26:13;;;;;;;7.60;3.47;;;;;;;;;;5011708;28;20026;-70
2023/06/01 11:28:40;;;;;;;4.60;4.10;;;;;;;;;;5011658;28;20038;-70
2023/06/01 11:31:09;;;;;;;4.20;3.80;;;;;;;;;;5011248;28;20034;-70
2023/06/01 11:33:38;;;;;;;4.93;3.50;;;;;;;;;;5010090;28;20026;-70
2023/06/01 11:36:05;;;;;;;4.15;3.58;;;;;;;;;;4994671;28;20034;-70
2023/06/01 11:38:44;;;;;;;7.45;3.88;;;;;;;;;;5013462;28;20088;-69
2023/06/01 11:41:10;;;;;;;5.78;3.70;;;;;;;;;;5016615;28;20036;-70
2023/06/01 11:43:37;;;;;;;4.28;3.88;;;;;;;;;;5033326;28;20037;-69
2023/06/01 11:46:04;;;;;;;4.88;3.35;;;;;;;;;;5051072;28;20055;-69
2023/06/01 11:48:30;;;;;;;4.47;3.95;;;;;;;;;;5050525;28;20051;-69
2023/06/01 11:51:00;;;;;;;4.10;3.67;;;;;;;;;;5051819;28;20508;-69
2023/06/01 11:53:27;;;;;;;3.33;3.05;;;;;;;;;;5052150;28;20489;-71
2023/06/01 11:55:55;;;;;;;4.63;3.35;;;;;;;;;;5060464;28;20025;-70
2023/06/01 11:58:30;;;;;;;5.18;3.80;;;;;;;;;;5052801;28;20029;-70
2023/06/01 12:00:57;;;;;;;3.95;3.55;;;;;;;;;;5052604;28;20025;-70
2023/06/01 12:03:24;;;;;;;4.25;3.85;;;;;;;;;;5052823;28;20535;-71
2023/06/01 12:05:51;;;;;;;4.45;3.80;;;;;;;;;;5051473;28;20078;-70
2023/06/01 12:08:20;;;;;;;4.70;3.50;;;;;;;;;;5050914;28;20037;-70
2023/06/01 12:10:47;;;;;;;6.68;3.58;;;;;;;;;;5052438;28;20400;-70
2023/06/01 12:13:14;;;;;;;4.95;3.13;;;;;;;;;;5044951;28;20044;-70
2023/06/01 12:15:40;;;;;;;6.72;3.35;;;;;;;;;;5042956;28;20033;-70
2023/06/01 12:18:08;;;;;;;4.28;3.53;;;;;;;;;;5048238;28;20029;-70
2023/06/01 12:20:35;;;;;;;5.68;3.83;;;;;;;;;;5043474;28;20025;-70
2023/06/01 12:23:04;;;;;;;3.83;3.45;;;;;;;;;;5046514;28;20048;-70
2023/06/01 12:25:34;;;;;;;6.28;3.47;;;;;;;;;;5049793;28;20036;-70
2023/06/01 12:28:07;;;;;;;6.22;3.83;;;;;;;;;;5053349;28;20037;-69
2023/06/01 12:30:34;;;;;;;3.45;3.15;;;;;;;;;;5053591;28;20027;-70
2023/06/01 12:33:01;;;;;;;5.72;3.47;;;;;;;;;;5051824;28;20086;-70
2023/06/01 12:35:27;;;;;;;3.67;3.30;;;;;;;;;;5048464;28;20400;-70
2023/06/01 12:38:12;;;;;;;4.68;3.22;;;;;;;;;;5052046;28;20021;-69
2023/06/01 12:40:39;;;;;;;7.70;3.45;;;;;;;;;;5047653;28;20033;-70
2023/06/01 12:43:17;;;;;;;7.60;3.65;;;;;;;;;;5046008;28;20028;-68
2023/06/01 12:45:44;;;;;;;5.95;3.92;;;;;;;;;;5048053;28;20025;-70
2023/06/01 12:48:30;;;;;;;4.03;3.67;;;;;;;;;;5050653;28;20066;-69
2023/06/01 12:50:57;;;;;;;4.03;3.60;;;;;;;;;;5050397;28;20015;-69
2023/06/01 12:53:26;;;;;;;5.63;4.07;;;;;;;;;;5051472;28;20031;-69
2023/06/01 12:55:53;;;;;;;4.72;3.45;;;;;;;;;;5050341;28;20017;-70
2023/06/01 12:58:19;;;;;;;5.05;3.60;;;;;;;;;;5049978;28;20384;-69
2023/06/01 13:00:46;;;;;;;4.22;3.83;;;;;;;;;;5051230;28;20390;-69
2023/06/01 13:03:13;;;;;;;6.97;4.15;;;;;;;;;;5051303;28;20036;-69
2023/06/01 13:05:45;;;;;;;5.65;3.92;;;;;;;;;;5051572;28;20029;-68
2023/06/01 13:08:11;;;;;;;5.07;3.80;;;;;;;;;;5051317;28;20043;-70
2023/06/01 13:10:38;;;;;;;6.55;3.80;;;;;;;;;;5051567;28;20708;-70
2023/06/01 13:13:04;;;;;;;6.47;3.70;;;;;;;;;;5050664;28;20029;-69
2023/06/01 13:15:31;;;;;;;5.05;4.00;;;;;;;;;;5051539;28;20021;-69
2023/06/01 13:17:57;;;;;;;4.78;3.90;;;;;;;;;;5050456;28;20013;-69
2023/06/01 13:20:24;;;;;;;5.60;4.35;;;;;;;;;;5050616;28;20027;-69
2023/06/01 13:22:52;;;;;;;7.53;3.95;;;;;;;;;;5049615;28;21090;-69
2023/06/01 13:25:19;;;;;;;8.98;4.20;;;;;;;;;;5049973;28;20035;-69
2023/06/01 13:27:45;;;;;;;5.03;4.10;;;;;;;;;;5049974;28;20033;-69
2023/06/01 13:30:13;;;;;;;4.72;3.90;;;;;;;;;;5050334;28;20025;-69
2023/06/01 13:32:39;;;;;;;6.53;4.03;;;;;;;;;;5048647;28;20041;-69
2023/06/01 13:35:06;;;;;;;7.57;4.50;;;;;;;;;;5035130;28;20036;-69
2023/06/01 13:37:32;;;;;;;5.35;4.20;;;;;;;;;;5040738;28;20034;-69
2023/06/01 13:39:59;;;;;;;7.25;4.90;;;;;;;;;;5030248;28;20021;-69
2023/06/01 13:42:25;;;;;;;4.70;4.15;;;;;;;;;;5038548;28;20087;-69
2023/06/01 13:44:52;;;;;;;6.03;4.30;;;;;;;;;;5050549;28;20021;-69
2023/06/01 13:47:18;;;;;;;7.65;6.05;;;;;;;;;;5050200;28;20041;-68
2023/06/01 13:49:45;;;;;;;9.60;5.38;;;;;;;;;;5050725;28;20017;-69
2023/06/01 13:52:12;;;;;;;6.13;4.20;;;;;;;;;;5052065;28;20035;-70
2023/06/01 13:54:38;;;;;;;5.43;4.45;;;;;;;;;;5051599;28;20045;-68
2023/06/01 13:57:05;;;;;;;8.63;4.25;;;;;;;;;;5053317;28;20081;-69
2023/06/01 13:59:34;;;;;;;5.72;4.43;;;;;;;;;;5058673;28;20017;-69
2023/06/01 14:02:00;;;;;;;6.35;4.60;;;;;;;;;;5051550;28;20016;-69
2023/06/01 14:04:26;;;;;;;12.65;7.50;;;;;;;;;;5051292;28;20033;-69
2023/06/01 14:06:55;;;;;;;6.32;4.60;;;;;;;;;;5051544;28;20031;-68
2023/06/01 14:09:22;;;;;;;6.38;4.70;;;;;;;;;;5051538;28;20037;-69
2023/06/01 14:11:48;;;;;;;7.28;4.70;;;;;;;;;;5051374;28;20032;-68
2023/06/01 14:14:15;;;;;;;6.85;4.25;;;;;;;;;;5050241;28;20047;-69
2023/06/01 14:16:41;;;;;;;6.70;4.28;;;;;;;;;;5049603;28;20036;-69
2023/06/01 14:19:07;;;;;;;4.93;4.20;;;;;;;;;;5050934;28;20039;-69
2023/06/01 14:21:35;;;;;;;5.72;4.55;;;;;;;;;;5051174;28;20025;-69
2023/06/01 14:24:02;;;;;;;4.75;4.07;;;;;;;;;;5051668;28;20059;-69
2023/06/01 14:26:28;;;;;;;5.82;4.40;;;;;;;;;;5051475;28;20039;-68
2023/06/01 14:28:55;;;;;;;5.68;4.18;;;;;;;;;;5051352;28;20025;-69
2023/06/01 14:31:21;;;;;;;6.45;4.57;;;;;;;;;;5045471;28;20021;-69
2023/06/01 14:33:48;;;;;;;7.32;4.85;;;;;;;;;;5040124;28;20202;-69
2023/06/01 14:36:14;;;;;;;6.22;4.40;;;;;;;;;;5031295;28;20063;-69
2023/06/01 14:38:41;;;;;;;6.93;4.50;;;;;;;;;;5031703;28;20489;-69
2023/06/01 14:41:08;;;;;;;10.38;4.93;;;;;;;;;;5040059;28;20419;-69
2023/06/01 14:43:34;;;;;;;8.25;4.60;;;;;;;;;;5050170;28;20516;-68
2023/06/01 14:46:01;;;;;;;6.20;4.32;;;;;;;;;;5043319;28;20436;-68